Terminal Aerodrome Forecast
Issued by NWS

Home | Current Version | Previous Version | Text Only | Print | Product List | Glossary On
Versions: 1 2 3 4 5 6 7 8 9 10 11 12 13 14 15 16 17 18 19 20 21 22 23 24 25 26
000
FTUS45 KRIW 160525
TAFLND
TAF
KLND 160525Z 1606/1706 02007KT P6SM SCT060 BKN080
     FM160800 VRB06KT P6SM SCT080
     FM161900 06007KT P6SM VCTS SCT070 BKN090CB
     FM170300 03008KT P6SM BKN120=

USA.gov is the U.S. government's official web portal to all federal, state and local government web resources and services.